Terminal Aerodrome Forecast
Issued by NWS

Current Version | Previous Version | Text Only | Print | Product List | Glossary Off
Versions: 1 2 3 4 5 6 7 8 9 10 11 12 13 14 15 16 17 18 19 20 21 22

000
FTUS41 KRLX 171600 AAA
TAFCKB
TAF AMD
KCKB 171605Z 1716/1812 26010G17KT 6SM -SHSNDZ OVC020
     FM180100 27006KT P6SM OVC022
     FM180500 27006KT P6SM OVC015=

USA.gov is the U.S. government's official web portal to all federal, state and local government web resources and services.